sensor_id;sensor_type;location;lat;lon;timestamp;P1;durP1;ratioP1;P2;durP2;ratioP2
21987;SDS011;11158;53.404;-1.510;2023-06-14T00:00:22;10.77;;;3.90;;
21987;SDS011;11158;53.404;-1.510;2023-06-14T00:03:06;7.03;;;3.05;;
21987;SDS011;11158;53.404;-1.510;2023-06-14T00:05:54;7.82;;;3.10;;
21987;SDS011;11158;53.404;-1.510;2023-06-14T00:08:38;6.25;;;3.65;;
21987;SDS011;11158;53.404;-1.510;2023-06-14T00:11:23;8.05;;;3.15;;
21987;SDS011;11158;53.404;-1.510;2023-06-14T00:14:07;5.63;;;3.10;;
21987;SDS011;11158;53.404;-1.510;2023-06-14T00:16:52;8.07;;;3.17;;
21987;SDS011;11158;53.404;-1.510;2023-06-14T00:19:37;8.55;;;3.58;;
21987;SDS011;11158;53.404;-1.510;2023-06-14T00:22:22;5.57;;;3.35;;
21987;SDS011;11158;53.404;-1.510;2023-06-14T00:25:12;4.05;;;2.90;;
21987;SDS011;11158;53.404;-1.510;2023-06-14T00:27:56;6.75;;;3.60;;
21987;SDS011;11158;53.404;-1.510;2023-06-14T00:30:41;9.07;;;3.40;;
21987;SDS011;11158;53.404;-1.510;2023-06-14T00:33:28;5.72;;;3.40;;
21987;SDS011;11158;53.404;-1.510;2023-06-14T00:36:12;5.47;;;3.45;;
21987;SDS011;11158;53.404;-1.510;2023-06-14T00:38:59;9.90;;;3.53;;
21987;SDS011;11158;53.404;-1.510;2023-06-14T00:41:44;5.15;;;3.13;;
21987;SDS011;11158;53.404;-1.510;2023-06-14T00:44:28;6.25;;;3.50;;
21987;SDS011;11158;53.404;-1.510;2023-06-14T00:47:12;8.45;;;3.40;;
21987;SDS011;11158;53.404;-1.510;2023-06-14T00:49:56;8.77;;;3.63;;
21987;SDS011;11158;53.404;-1.510;2023-06-14T00:52:40;7.22;;;3.65;;
21987;SDS011;11158;53.404;-1.510;2023-06-14T00:55:25;8.05;;;3.45;;
21987;SDS011;11158;53.404;-1.510;2023-06-14T00:58:09;8.38;;;3.90;;
21987;SDS011;11158;53.404;-1.510;2023-06-14T01:00:54;5.95;;;3.75;;
21987;SDS011;11158;53.404;-1.510;2023-06-14T01:03:38;7.10;;;3.38;;
21987;SDS011;11158;53.404;-1.510;2023-06-14T01:06:29;6.55;;;3.30;;
21987;SDS011;11158;53.404;-1.510;2023-06-14T01:09:25;8.10;;;3.88;;
21987;SDS011;11158;53.404;-1.510;2023-06-14T01:18:05;9.43;;;4.03;;
21987;SDS011;11158;53.404;-1.510;2023-06-14T01:20:50;6.80;;;4.15;;
21987;SDS011;11158;53.404;-1.510;2023-06-14T01:23:34;9.10;;;3.83;;
21987;SDS011;11158;53.404;-1.510;2023-06-14T01:26:19;4.13;;;3.47;;
21987;SDS011;11158;53.404;-1.510;2023-06-14T01:29:04;5.40;;;3.33;;
21987;SDS011;11158;53.404;-1.510;2023-06-14T01:31:49;6.63;;;3.22;;
21987;SDS011;11158;53.404;-1.510;2023-06-14T01:34:34;6.28;;;3.65;;
21987;SDS011;11158;53.404;-1.510;2023-06-14T01:37:19;5.35;;;4.13;;
21987;SDS011;11158;53.404;-1.510;2023-06-14T01:40:05;6.80;;;4.20;;
21987;SDS011;11158;53.404;-1.510;2023-06-14T01:42:53;6.30;;;3.83;;
21987;SDS011;11158;53.404;-1.510;2023-06-14T01:45:37;7.78;;;3.65;;
21987;SDS011;11158;53.404;-1.510;2023-06-14T01:48:24;7.65;;;3.88;;
21987;SDS011;11158;53.404;-1.510;2023-06-14T01:51:09;9.18;;;4.25;;
21987;SDS011;11158;53.404;-1.510;2023-06-14T01:53:53;5.60;;;3.40;;
21987;SDS011;11158;53.404;-1.510;2023-06-14T01:56:37;8.50;;;4.15;;
21987;SDS011;11158;53.404;-1.510;2023-06-14T01:59:22;6.85;;;3.95;;
21987;SDS011;11158;53.404;-1.510;2023-06-14T02:02:06;7.40;;;3.92;;
21987;SDS011;11158;53.404;-1.510;2023-06-14T02:04:50;6.40;;;4.43;;
21987;SDS011;11158;53.404;-1.510;2023-06-14T02:07:34;7.95;;;3.85;;
21987;SDS011;11158;53.404;-1.510;2023-06-14T02:10:18;7.20;;;3.75;;
21987;SDS011;11158;53.404;-1.510;2023-06-14T02:13:03;7.25;;;4.32;;
21987;SDS011;11158;53.404;-1.510;2023-06-14T02:15:47;4.13;;;3.55;;
21987;SDS011;11158;53.404;-1.510;2023-06-14T02:18:34;5.07;;;4.00;;
21987;SDS011;11158;53.404;-1.510;2023-06-14T02:21:20;5.88;;;3.80;;
21987;SDS011;11158;53.404;-1.510;2023-06-14T02:24:04;6.95;;;4.20;;
21987;SDS011;11158;53.404;-1.510;2023-06-14T02:26:48;8.52;;;4.05;;
21987;SDS011;11158;53.404;-1.510;2023-06-14T02:29:32;7.95;;;4.22;;
21987;SDS011;11158;53.404;-1.510;2023-06-14T02:32:16;6.80;;;4.18;;
21987;SDS011;11158;53.404;-1.510;2023-06-14T02:35:01;12.48;;;3.92;;
21987;SDS011;11158;53.404;-1.510;2023-06-14T02:37:45;5.97;;;3.70;;
21987;SDS011;11158;53.404;-1.510;2023-06-14T02:40:30;6.53;;;3.20;;
21987;SDS011;11158;53.404;-1.510;2023-06-14T02:43:14;8.82;;;3.75;;
21987;SDS011;11158;53.404;-1.510;2023-06-14T02:46:01;6.18;;;3.72;;
21987;SDS011;11158;53.404;-1.510;2023-06-14T02:48:46;8.35;;;3.63;;
21987;SDS011;11158;53.404;-1.510;2023-06-14T02:51:30;5.13;;;3.85;;
21987;SDS011;11158;53.404;-1.510;2023-06-14T02:54:15;7.28;;;4.38;;
21987;SDS011;11158;53.404;-1.510;2023-06-14T02:57:00;6.68;;;3.72;;
21987;SDS011;11158;53.404;-1.510;2023-06-14T02:59:44;7.43;;;3.70;;
21987;SDS011;11158;53.404;-1.510;2023-06-14T03:02:29;5.72;;;3.28;;
21987;SDS011;11158;53.404;-1.510;2023-06-14T03:05:13;7.68;;;4.43;;
21987;SDS011;11158;53.404;-1.510;2023-06-14T03:07:57;6.72;;;4.10;;
21987;SDS011;11158;53.404;-1.510;2023-06-14T03:10:42;4.63;;;3.40;;
21987;SDS011;11158;53.404;-1.510;2023-06-14T03:13:27;5.95;;;3.35;;
21987;SDS011;11158;53.404;-1.510;2023-06-14T03:16:15;5.00;;;3.65;;
21987;SDS011;11158;53.404;-1.510;2023-06-14T03:19:03;8.55;;;3.67;;
21987;SDS011;11158;53.404;-1.510;2023-06-14T03:21:47;5.25;;;3.20;;
21987;SDS011;11158;53.404;-1.510;2023-06-14T03:24:33;7.72;;;3.90;;
21987;SDS011;11158;53.404;-1.510;2023-06-14T03:27:20;5.97;;;3.25;;
21987;SDS011;11158;53.404;-1.510;2023-06-14T03:30:05;9.50;;;3.67;;
21987;SDS011;11158;53.404;-1.510;2023-06-14T03:32:50;5.75;;;3.75;;
21987;SDS011;11158;53.404;-1.510;2023-06-14T03:35:39;4.75;;;3.30;;
21987;SDS011;11158;53.404;-1.510;2023-06-14T03:38:23;6.95;;;3.17;;
21987;SDS011;11158;53.404;-1.510;2023-06-14T03:41:07;5.57;;;2.88;;
21987;SDS011;11158;53.404;-1.510;2023-06-14T03:43:51;4.60;;;3.47;;
21987;SDS011;11158;53.404;-1.510;2023-06-14T03:46:35;5.82;;;3.83;;
21987;SDS011;11158;53.404;-1.510;2023-06-14T03:49:19;5.53;;;3.28;;
21987;SDS011;11158;53.404;-1.510;2023-06-14T03:52:04;5.20;;;3.40;;
21987;SDS011;11158;53.404;-1.510;2023-06-14T03:54:49;8.52;;;3.65;;
21987;SDS011;11158;53.404;-1.510;2023-06-14T03:57:33;6.68;;;2.90;;
21987;SDS011;11158;53.404;-1.510;2023-06-14T04:00:17;6.80;;;2.88;;
21987;SDS011;11158;53.404;-1.510;2023-06-14T04:03:01;5.90;;;2.97;;
21987;SDS011;11158;53.404;-1.510;2023-06-14T04:05:48;7.78;;;3.28;;
21987;SDS011;11158;53.404;-1.510;2023-06-14T04:08:33;8.15;;;3.40;;
21987;SDS011;11158;53.404;-1.510;2023-06-14T04:11:17;6.35;;;3.20;;
21987;SDS011;11158;53.404;-1.510;2023-06-14T04:14:02;8.05;;;3.30;;
21987;SDS011;11158;53.404;-1.510;2023-06-14T04:16:47;6.90;;;3.22;;
21987;SDS011;11158;53.404;-1.510;2023-06-14T04:19:32;6.28;;;2.95;;
21987;SDS011;11158;53.404;-1.510;2023-06-14T04:22:16;6.10;;;3.05;;
21987;SDS011;11158;53.404;-1.510;2023-06-14T04:25:00;6.13;;;3.13;;
21987;SDS011;11158;53.404;-1.510;2023-06-14T04:27:44;12.43;;;3.72;;
21987;SDS011;11158;53.404;-1.510;2023-06-14T04:30:31;5.35;;;2.80;;
21987;SDS011;11158;53.404;-1.510;2023-06-14T04:33:15;4.97;;;3.42;;
21987;SDS011;11158;53.404;-1.510;2023-06-14T04:35:59;7.03;;;3.60;;
21987;SDS011;11158;53.404;-1.510;2023-06-14T04:38:43;5.63;;;3.50;;
21987;SDS011;11158;53.404;-1.510;2023-06-14T04:41:28;5.65;;;2.92;;
21987;SDS011;11158;53.404;-1.510;2023-06-14T04:44:14;7.85;;;2.95;;
21987;SDS011;11158;53.404;-1.510;2023-06-14T04:47:00;5.72;;;3.00;;
21987;SDS011;11158;53.404;-1.510;2023-06-14T04:49:44;4.97;;;2.97;;
21987;SDS011;11158;53.404;-1.510;2023-06-14T04:52:29;5.93;;;2.63;;
21987;SDS011;11158;53.404;-1.510;2023-06-14T04:55:14;7.38;;;2.42;;
21987;SDS011;11158;53.404;-1.510;2023-06-14T04:57:58;4.95;;;2.90;;
21987;SDS011;11158;53.404;-1.510;2023-06-14T05:00:42;4.25;;;2.63;;
21987;SDS011;11158;53.404;-1.510;2023-06-14T05:03:27;9.65;;;2.90;;
21987;SDS011;11158;53.404;-1.510;2023-06-14T05:06:11;5.07;;;2.25;;
21987;SDS011;11158;53.404;-1.510;2023-06-14T05:08:55;6.60;;;2.60;;
21987;SDS011;11158;53.404;-1.510;2023-06-14T05:11:40;6.53;;;2.65;;
21987;SDS011;11158;53.404;-1.510;2023-06-14T05:14:27;3.28;;;2.42;;
21987;SDS011;11158;53.404;-1.510;2023-06-14T05:17:11;4.25;;;2.47;;
21987;SDS011;11158;53.404;-1.510;2023-06-14T05:19:55;6.85;;;2.72;;
21987;SDS011;11158;53.404;-1.510;2023-06-14T05:22:40;10.10;;;2.95;;
21987;SDS011;11158;53.404;-1.510;2023-06-14T05:25:24;5.53;;;2.83;;
21987;SDS011;11158;53.404;-1.510;2023-06-14T05:28:08;6.75;;;2.80;;
21987;SDS011;11158;53.404;-1.510;2023-06-14T05:30:53;3.10;;;2.50;;
21987;SDS011;11158;53.404;-1.510;2023-06-14T05:33:37;7.22;;;2.72;;
21987;SDS011;11158;53.404;-1.510;2023-06-14T05:36:21;6.10;;;2.92;;
21987;SDS011;11158;53.404;-1.510;2023-06-14T05:39:05;5.05;;;2.42;;
21987;SDS011;11158;53.404;-1.510;2023-06-14T05:41:50;5.55;;;2.60;;
21987;SDS011;11158;53.404;-1.510;2023-06-14T05:44:34;4.85;;;2.50;;
21987;SDS011;11158;53.404;-1.510;2023-06-14T05:47:18;6.75;;;2.30;;
21987;SDS011;11158;53.404;-1.510;2023-06-14T05:50:03;5.22;;;2.78;;
21987;SDS011;11158;53.404;-1.510;2023-06-14T05:52:47;6.65;;;3.13;;
21987;SDS011;11158;53.404;-1.510;2023-06-14T05:55:31;3.25;;;2.58;;
21987;SDS011;11158;53.404;-1.510;2023-06-14T05:58:15;5.00;;;2.67;;
21987;SDS011;11158;53.404;-1.510;2023-06-14T06:00:59;5.43;;;3.05;;
21987;SDS011;11158;53.404;-1.510;2023-06-14T06:03:43;3.80;;;2.50;;
21987;SDS011;11158;53.404;-1.510;2023-06-14T06:06:30;8.30;;;2.67;;
21987;SDS011;11158;53.404;-1.510;2023-06-14T06:09:14;7.50;;;3.08;;
21987;SDS011;11158;53.404;-1.510;2023-06-14T06:11:58;4.40;;;2.70;;
21987;SDS011;11158;53.404;-1.510;2023-06-14T06:14:43;7.65;;;2.60;;
21987;SDS011;11158;53.404;-1.510;2023-06-14T06:17:27;3.92;;;2.50;;
21987;SDS011;11158;53.404;-1.510;2023-06-14T06:20:11;4.32;;;2.50;;
21987;SDS011;11158;53.404;-1.510;2023-06-14T06:22:59;5.20;;;2.83;;
21987;SDS011;11158;53.404;-1.510;2023-06-14T06:25:44;4.30;;;2.40;;
21987;SDS011;11158;53.404;-1.510;2023-06-14T06:28:29;4.15;;;2.40;;
21987;SDS011;11158;53.404;-1.510;2023-06-14T06:31:13;6.10;;;2.30;;
21987;SDS011;11158;53.404;-1.510;2023-06-14T06:33:57;5.75;;;2.42;;
21987;SDS011;11158;53.404;-1.510;2023-06-14T06:36:42;3.90;;;2.25;;
21987;SDS011;11158;53.404;-1.510;2023-06-14T06:39:26;6.60;;;2.60;;
21987;SDS011;11158;53.404;-1.510;2023-06-14T06:42:12;9.15;;;2.85;;
21987;SDS011;11158;53.404;-1.510;2023-06-14T06:44:56;14.65;;;3.00;;
21987;SDS011;11158;53.404;-1.510;2023-06-14T06:47:40;5.35;;;2.88;;
21987;SDS011;11158;53.404;-1.510;2023-06-14T06:50:24;7.15;;;2.70;;
21987;SDS011;11158;53.404;-1.510;2023-06-14T06:53:09;6.13;;;2.70;;
21987;SDS011;11158;53.404;-1.510;2023-06-14T06:55:53;5.75;;;2.95;;
21987;SDS011;11158;53.404;-1.510;2023-06-14T06:58:37;5.80;;;2.60;;
21987;SDS011;11158;53.404;-1.510;2023-06-14T07:01:22;8.25;;;2.67;;
21987;SDS011;11158;53.404;-1.510;2023-06-14T07:04:08;5.63;;;2.50;;
21987;SDS011;11158;53.404;-1.510;2023-06-14T07:06:52;7.35;;;2.90;;
21987;SDS011;11158;53.404;-1.510;2023-06-14T07:09:36;4.68;;;2.58;;
21987;SDS011;11158;53.404;-1.510;2023-06-14T07:12:20;4.78;;;2.40;;
21987;SDS011;11158;53.404;-1.510;2023-06-14T07:15:05;11.10;;;3.17;;
21987;SDS011;11158;53.404;-1.510;2023-06-14T07:17:51;4.55;;;2.35;;
21987;SDS011;11158;53.404;-1.510;2023-06-14T07:20:36;8.90;;;3.15;;
21987;SDS011;11158;53.404;-1.510;2023-06-14T07:23:22;7.22;;;2.90;;
21987;SDS011;11158;53.404;-1.510;2023-06-14T07:26:06;11.30;;;3.30;;
21987;SDS011;11158;53.404;-1.510;2023-06-14T07:28:50;9.20;;;2.53;;
21987;SDS011;11158;53.404;-1.510;2023-06-14T07:31:35;7.75;;;2.35;;
21987;SDS011;11158;53.404;-1.510;2023-06-14T07:34:19;6.88;;;2.70;;
21987;SDS011;11158;53.404;-1.510;2023-06-14T07:37:03;10.02;;;2.50;;
21987;SDS011;11158;53.404;-1.510;2023-06-14T07:39:48;8.57;;;2.75;;
21987;SDS011;11158;53.404;-1.510;2023-06-14T07:42:33;7.93;;;2.55;;
21987;SDS011;11158;53.404;-1.510;2023-06-14T07:45:19;6.60;;;2.55;;
21987;SDS011;11158;53.404;-1.510;2023-06-14T07:48:03;6.43;;;2.60;;
21987;SDS011;11158;53.404;-1.510;2023-06-14T07:50:48;9.30;;;2.42;;
21987;SDS011;11158;53.404;-1.510;2023-06-14T07:53:32;8.93;;;2.75;;
21987;SDS011;11158;53.404;-1.510;2023-06-14T07:56:16;9.88;;;2.65;;
21987;SDS011;11158;53.404;-1.510;2023-06-14T07:59:00;7.00;;;2.40;;
21987;SDS011;11158;53.404;-1.510;2023-06-14T08:01:44;5.25;;;3.17;;
21987;SDS011;11158;53.404;-1.510;2023-06-14T08:04:29;8.00;;;2.53;;
21987;SDS011;11158;53.404;-1.510;2023-06-14T08:07:14;8.52;;;2.63;;
21987;SDS011;11158;53.404;-1.510;2023-06-14T08:09:58;9.13;;;2.97;;
21987;SDS011;11158;53.404;-1.510;2023-06-14T08:12:43;8.98;;;2.72;;
21987;SDS011;11158;53.404;-1.510;2023-06-14T08:15:27;5.07;;;2.70;;
21987;SDS011;11158;53.404;-1.510;2023-06-14T08:18:12;6.78;;;2.38;;
21987;SDS011;11158;53.404;-1.510;2023-06-14T08:20:57;16.73;;;3.03;;
21987;SDS011;11158;53.404;-1.510;2023-06-14T08:23:41;8.15;;;2.78;;
21987;SDS011;11158;53.404;-1.510;2023-06-14T08:26:27;7.95;;;3.38;;
21987;SDS011;11158;53.404;-1.510;2023-06-14T08:29:12;7.93;;;2.97;;
21987;SDS011;11158;53.404;-1.510;2023-06-14T08:31:57;6.45;;;3.05;;
21987;SDS011;11158;53.404;-1.510;2023-06-14T08:34:41;8.07;;;2.42;;
21987;SDS011;11158;53.404;-1.510;2023-06-14T08:37:26;6.70;;;2.80;;
21987;SDS011;11158;53.404;-1.510;2023-06-14T08:40:18;7.28;;;3.33;;
21987;SDS011;11158;53.404;-1.510;2023-06-14T08:43:04;7.43;;;2.80;;
21987;SDS011;11158;53.404;-1.510;2023-06-14T08:45:49;13.88;;;2.95;;
21987;SDS011;11158;53.404;-1.510;2023-06-14T08:51:26;10.73;;;3.00;;
21987;SDS011;11158;53.404;-1.510;2023-06-14T08:54:17;7.38;;;2.50;;
21987;SDS011;11158;53.404;-1.510;2023-06-14T08:57:04;7.55;;;2.53;;
21987;SDS011;11158;53.404;-1.510;2023-06-14T08:59:50;5.57;;;2.60;;
21987;SDS011;11158;53.404;-1.510;2023-06-14T09:02:38;8.57;;;3.13;;
21987;SDS011;11158;53.404;-1.510;2023-06-14T09:05:28;7.40;;;3.03;;
21987;SDS011;11158;53.404;-1.510;2023-06-14T09:08:12;11.05;;;3.08;;
21987;SDS011;11158;53.404;-1.510;2023-06-14T09:10:56;9.23;;;2.85;;
21987;SDS011;11158;53.404;-1.510;2023-06-14T09:13:41;9.48;;;2.95;;
21987;SDS011;11158;53.404;-1.510;2023-06-14T09:16:26;11.43;;;3.42;;
21987;SDS011;11158;53.404;-1.510;2023-06-14T09:19:13;8.05;;;3.05;;
21987;SDS011;11158;53.404;-1.510;2023-06-14T09:22:05;8.27;;;2.92;;
21987;SDS011;11158;53.404;-1.510;2023-06-14T09:24:50;6.07;;;3.05;;
21987;SDS011;11158;53.404;-1.510;2023-06-14T09:27:34;6.15;;;2.88;;
21987;SDS011;11158;53.404;-1.510;2023-06-14T09:30:19;11.45;;;3.00;;
21987;SDS011;11158;53.404;-1.510;2023-06-14T09:33:04;9.27;;;2.70;;
21987;SDS011;11158;53.404;-1.510;2023-06-14T09:35:51;7.50;;;2.60;;
21987;SDS011;11158;53.404;-1.510;2023-06-14T09:38:36;10.13;;;2.60;;
21987;SDS011;11158;53.404;-1.510;2023-06-14T09:41:20;11.20;;;3.10;;
21987;SDS011;11158;53.404;-1.510;2023-06-14T09:44:05;10.07;;;3.10;;
21987;SDS011;11158;53.404;-1.510;2023-06-14T09:46:50;13.45;;;3.30;;
21987;SDS011;11158;53.404;-1.510;2023-06-14T09:49:35;10.65;;;2.60;;
21987;SDS011;11158;53.404;-1.510;2023-06-14T09:52:29;13.13;;;2.70;;
21987;SDS011;11158;53.404;-1.510;2023-06-14T09:55:13;8.32;;;2.83;;
21987;SDS011;11158;53.404;-1.510;2023-06-14T09:58:00;8.70;;;2.67;;
21987;SDS011;11158;53.404;-1.510;2023-06-14T10:00:47;8.15;;;2.67;;
21987;SDS011;11158;53.404;-1.510;2023-06-14T10:03:35;8.25;;;2.53;;
21987;SDS011;11158;53.404;-1.510;2023-06-14T10:06:22;8.70;;;2.83;;
21987;SDS011;11158;53.404;-1.510;2023-06-14T10:09:09;6.43;;;2.63;;
21987;SDS011;11158;53.404;-1.510;2023-06-14T10:11:54;10.98;;;2.95;;
21987;SDS011;11158;53.404;-1.510;2023-06-14T10:14:39;9.50;;;2.58;;
21987;SDS011;11158;53.404;-1.510;2023-06-14T10:17:35;9.30;;;2.60;;
21987;SDS011;11158;53.404;-1.510;2023-06-14T10:20:36;8.95;;;2.45;;
21987;SDS011;11158;53.404;-1.510;2023-06-14T10:23:26;4.40;;;2.00;;
21987;SDS011;11158;53.404;-1.510;2023-06-14T10:26:22;7.07;;;2.35;;
21987;SDS011;11158;53.404;-1.510;2023-06-14T10:29:09;9.75;;;2.70;;
21987;SDS011;11158;53.404;-1.510;2023-06-14T10:31:57;9.05;;;2.28;;
21987;SDS011;11158;53.404;-1.510;2023-06-14T10:34:42;5.18;;;2.42;;
21987;SDS011;11158;53.404;-1.510;2023-06-14T10:37:27;11.73;;;2.55;;
21987;SDS011;11158;53.404;-1.510;2023-06-14T10:40:14;9.07;;;2.38;;
21987;SDS011;11158;53.404;-1.510;2023-06-14T10:43:21;9.82;;;2.38;;
21987;SDS011;11158;53.404;-1.510;2023-06-14T10:46:19;12.80;;;2.85;;
21987;SDS011;11158;53.404;-1.510;2023-06-14T10:49:06;11.60;;;2.10;;
21987;SDS011;11158;53.404;-1.510;2023-06-14T10:51:51;5.80;;;2.28;;
21987;SDS011;11158;53.404;-1.510;2023-06-14T10:54:35;6.00;;;2.20;;
21987;SDS011;11158;53.404;-1.510;2023-06-14T10:57:19;9.65;;;2.42;;
21987;SDS011;11158;53.404;-1.510;2023-06-14T11:00:05;5.72;;;2.22;;
21987;SDS011;11158;53.404;-1.510;2023-06-14T11:05:58;4.95;;;2.17;;
21987;SDS011;11158;53.404;-1.510;2023-06-14T11:11:36;8.68;;;2.30;;
21987;SDS011;11158;53.404;-1.510;2023-06-14T11:14:22;5.00;;;2.13;;
21987;SDS011;11158;53.404;-1.510;2023-06-14T11:17:06;7.47;;;2.38;;
21987;SDS011;11158;53.404;-1.510;2023-06-14T11:19:50;6.85;;;2.33;;
21987;SDS011;11158;53.404;-1.510;2023-06-14T11:22:44;11.38;;;2.30;;
21987;SDS011;11158;53.404;-1.510;2023-06-14T11:25:29;7.55;;;2.15;;
21987;SDS011;11158;53.404;-1.510;2023-06-14T11:28:15;7.10;;;2.42;;
21987;SDS011;11158;53.404;-1.510;2023-06-14T11:30:59;8.35;;;2.78;;
21987;SDS011;11158;53.404;-1.510;2023-06-14T11:33:48;10.73;;;2.42;;
21987;SDS011;11158;53.404;-1.510;2023-06-14T11:36:34;6.90;;;2.75;;
21987;SDS011;11158;53.404;-1.510;2023-06-14T11:39:23;5.40;;;2.05;;
21987;SDS011;11158;53.404;-1.510;2023-06-14T11:42:08;7.90;;;2.75;;
21987;SDS011;11158;53.404;-1.510;2023-06-14T11:44:59;11.77;;;3.08;;
21987;SDS011;11158;53.404;-1.510;2023-06-14T11:47:43;4.55;;;2.40;;
21987;SDS011;11158;53.404;-1.510;2023-06-14T11:50:27;3.50;;;1.83;;
21987;SDS011;11158;53.404;-1.510;2023-06-14T11:53:12;5.88;;;2.03;;
21987;SDS011;11158;53.404;-1.510;2023-06-14T11:55:57;5.55;;;2.20;;
21987;SDS011;11158;53.404;-1.510;2023-06-14T11:58:42;8.40;;;2.20;;
21987;SDS011;11158;53.404;-1.510;2023-06-14T12:01:29;6.85;;;2.35;;
21987;SDS011;11158;53.404;-1.510;2023-06-14T12:04:22;9.07;;;2.35;;
21987;SDS011;11158;53.404;-1.510;2023-06-14T12:07:16;6.70;;;2.20;;
21987;SDS011;11158;53.404;-1.510;2023-06-14T12:10:07;6.28;;;2.70;;
21987;SDS011;11158;53.404;-1.510;2023-06-14T12:12:58;8.65;;;2.17;;
21987;SDS011;11158;53.404;-1.510;2023-06-14T12:15:53;4.25;;;1.98;;
21987;SDS011;11158;53.404;-1.510;2023-06-14T12:18:40;7.18;;;1.95;;
21987;SDS011;11158;53.404;-1.510;2023-06-14T12:21:27;4.05;;;1.90;;
21987;SDS011;11158;53.404;-1.510;2023-06-14T12:24:12;6.43;;;2.05;;
21987;SDS011;11158;53.404;-1.510;2023-06-14T12:26:57;4.32;;;1.85;;
21987;SDS011;11158;53.404;-1.510;2023-06-14T12:29:47;4.35;;;1.70;;
21987;SDS011;11158;53.404;-1.510;2023-06-14T12:32:42;8.68;;;2.20;;
21987;SDS011;11158;53.404;-1.510;2023-06-14T12:35:27;9.23;;;2.78;;
21987;SDS011;11158;53.404;-1.510;2023-06-14T12:38:11;7.75;;;2.00;;
21987;SDS011;11158;53.404;-1.510;2023-06-14T12:40:56;6.28;;;2.10;;
21987;SDS011;11158;53.404;-1.510;2023-06-14T12:43:41;8.88;;;2.10;;
21987;SDS011;11158;53.404;-1.510;2023-06-14T12:46:26;6.70;;;2.13;;
21987;SDS011;11158;53.404;-1.510;2023-06-14T12:49:12;8.32;;;1.83;;
21987;SDS011;11158;53.404;-1.510;2023-06-14T12:51:57;7.78;;;2.70;;
21987;SDS011;11158;53.404;-1.510;2023-06-14T12:54:40;6.00;;;2.42;;
21987;SDS011;11158;53.404;-1.510;2023-06-14T12:57:25;4.50;;;1.83;;
21987;SDS011;11158;53.404;-1.510;2023-06-14T13:00:09;5.47;;;2.15;;
21987;SDS011;11158;53.404;-1.510;2023-06-14T13:02:53;6.82;;;2.00;;
21987;SDS011;11158;53.404;-1.510;2023-06-14T13:05:37;4.97;;;2.25;;
21987;SDS011;11158;53.404;-1.510;2023-06-14T13:08:24;4.95;;;2.05;;
21987;SDS011;11158;53.404;-1.510;2023-06-14T13:11:08;5.28;;;2.20;;
21987;SDS011;11158;53.404;-1.510;2023-06-14T13:13:53;6.82;;;2.13;;
21987;SDS011;11158;53.404;-1.510;2023-06-14T13:16:37;8.32;;;2.22;;
21987;SDS011;11158;53.404;-1.510;2023-06-14T13:19:21;8.32;;;1.88;;
21987;SDS011;11158;53.404;-1.510;2023-06-14T13:22:06;5.65;;;1.85;;
21987;SDS011;11158;53.404;-1.510;2023-06-14T13:24:51;5.13;;;1.83;;
21987;SDS011;11158;53.404;-1.510;2023-06-14T13:27:35;4.80;;;2.33;;
21987;SDS011;11158;53.404;-1.510;2023-06-14T13:30:19;6.60;;;2.20;;
21987;SDS011;11158;53.404;-1.510;2023-06-14T13:33:04;7.95;;;1.98;;
21987;SDS011;11158;53.404;-1.510;2023-06-14T13:35:48;7.50;;;1.83;;
21987;SDS011;11158;53.404;-1.510;2023-06-14T13:38:33;9.85;;;2.08;;
21987;SDS011;11158;53.404;-1.510;2023-06-14T13:41:16;6.50;;;2.20;;
21987;SDS011;11158;53.404;-1.510;2023-06-14T13:44:01;7.10;;;1.92;;
21987;SDS011;11158;53.404;-1.510;2023-06-14T13:46:47;3.92;;;1.70;;
21987;SDS011;11158;53.404;-1.510;2023-06-14T13:49:32;4.97;;;1.80;;
21987;SDS011;11158;53.404;-1.510;2023-06-14T13:52:18;8.98;;;2.20;;
21987;SDS011;11158;53.404;-1.510;2023-06-14T13:55:03;5.32;;;1.90;;
21987;SDS011;11158;53.404;-1.510;2023-06-14T13:57:49;4.97;;;1.80;;
21987;SDS011;11158;53.404;-1.510;2023-06-14T14:00:33;7.07;;;1.90;;
21987;SDS011;11158;53.404;-1.510;2023-06-14T14:03:17;6.80;;;2.03;;
21987;SDS011;11158;53.404;-1.510;2023-06-14T14:06:04;4.90;;;1.98;;
21987;SDS011;11158;53.404;-1.510;2023-06-14T14:08:49;8.43;;;2.38;;
21987;SDS011;11158;53.404;-1.510;2023-06-14T14:11:34;7.90;;;2.40;;
21987;SDS011;11158;53.404;-1.510;2023-06-14T14:14:18;4.55;;;2.13;;
21987;SDS011;11158;53.404;-1.510;2023-06-14T14:17:02;4.32;;;1.90;;
21987;SDS011;11158;53.404;-1.510;2023-06-14T14:19:47;8.07;;;2.08;;
21987;SDS011;11158;53.404;-1.510;2023-06-14T14:22:32;2.85;;;1.65;;
21987;SDS011;11158;53.404;-1.510;2023-06-14T14:25:17;5.10;;;1.73;;
21987;SDS011;11158;53.404;-1.510;2023-06-14T14:28:01;6.32;;;1.98;;
21987;SDS011;11158;53.404;-1.510;2023-06-14T14:30:46;6.82;;;1.30;;
21987;SDS011;11158;53.404;-1.510;2023-06-14T14:33:31;3.00;;;1.60;;
21987;SDS011;11158;53.404;-1.510;2023-06-14T14:36:15;5.75;;;1.70;;
21987;SDS011;11158;53.404;-1.510;2023-06-14T14:39:00;2.70;;;1.70;;
21987;SDS011;11158;53.404;-1.510;2023-06-14T14:41:44;8.30;;;1.70;;
21987;SDS011;11158;53.404;-1.510;2023-06-14T14:44:28;9.98;;;1.73;;
21987;SDS011;11158;53.404;-1.510;2023-06-14T14:47:12;5.35;;;1.60;;
21987;SDS011;11158;53.404;-1.510;2023-06-14T14:49:57;5.05;;;1.90;;
21987;SDS011;11158;53.404;-1.510;2023-06-14T14:52:41;5.75;;;1.70;;
21987;SDS011;11158;53.404;-1.510;2023-06-14T14:55:26;9.85;;;1.42;;
21987;SDS011;11158;53.404;-1.510;2023-06-14T14:58:11;4.28;;;1.20;;
21987;SDS011;11158;53.404;-1.510;2023-06-14T15:00:56;5.40;;;1.70;;
21987;SDS011;11158;53.404;-1.510;2023-06-14T15:03:42;4.70;;;1.23;;
21987;SDS011;11158;53.404;-1.510;2023-06-14T15:06:26;8.40;;;1.38;;
21987;SDS011;11158;53.404;-1.510;2023-06-14T15:09:11;4.05;;;1.50;;
21987;SDS011;11158;53.404;-1.510;2023-06-14T15:11:55;3.35;;;1.35;;
21987;SDS011;11158;53.404;-1.510;2023-06-14T15:14:39;3.75;;;1.35;;
21987;SDS011;11158;53.404;-1.510;2023-06-14T15:17:23;5.03;;;1.25;;
21987;SDS011;11158;53.404;-1.510;2023-06-14T15:20:08;5.55;;;1.42;;
21987;SDS011;11158;53.404;-1.510;2023-06-14T15:22:54;4.25;;;1.45;;
21987;SDS011;11158;53.404;-1.510;2023-06-14T15:25:44;6.82;;;1.80;;
21987;SDS011;11158;53.404;-1.510;2023-06-14T15:28:28;1.67;;;1.20;;
21987;SDS011;11158;53.404;-1.510;2023-06-14T15:31:13;3.28;;;1.40;;
21987;SDS011;11158;53.404;-1.510;2023-06-14T15:33:57;5.47;;;1.90;;
21987;SDS011;11158;53.404;-1.510;2023-06-14T15:36:41;8.15;;;1.52;;
21987;SDS011;11158;53.404;-1.510;2023-06-14T15:39:25;3.50;;;1.23;;
21987;SDS011;11158;53.404;-1.510;2023-06-14T15:42:10;5.45;;;1.88;;
21987;SDS011;11158;53.404;-1.510;2023-06-14T15:44:55;3.92;;;1.42;;
21987;SDS011;11158;53.404;-1.510;2023-06-14T15:47:39;3.38;;;1.00;;
21987;SDS011;11158;53.404;-1.510;2023-06-14T15:50:25;2.33;;;1.08;;
21987;SDS011;11158;53.404;-1.510;2023-06-14T15:53:09;6.25;;;1.40;;
21987;SDS011;11158;53.404;-1.510;2023-06-14T15:55:54;5.03;;;1.42;;
21987;SDS011;11158;53.404;-1.510;2023-06-14T15:58:38;3.53;;;1.48;;
21987;SDS011;11158;53.404;-1.510;2023-06-14T16:01:22;2.75;;;1.20;;
21987;SDS011;11158;53.404;-1.510;2023-06-14T16:04:07;4.30;;;1.23;;
21987;SDS011;11158;53.404;-1.510;2023-06-14T16:06:51;3.15;;;1.40;;
21987;SDS011;11158;53.404;-1.510;2023-06-14T16:09:36;5.15;;;1.25;;
21987;SDS011;11158;53.404;-1.510;2023-06-14T16:12:20;4.75;;;1.02;;
21987;SDS011;11158;53.404;-1.510;2023-06-14T16:15:05;5.15;;;1.45;;
21987;SDS011;11158;53.404;-1.510;2023-06-14T16:17:50;4.63;;;1.20;;
21987;SDS011;11158;53.404;-1.510;2023-06-14T16:20:34;5.35;;;1.23;;
21987;SDS011;11158;53.404;-1.510;2023-06-14T16:23:18;5.63;;;1.42;;
21987;SDS011;11158;53.404;-1.510;2023-06-14T16:26:03;4.57;;;1.90;;
21987;SDS011;11158;53.404;-1.510;2023-06-14T16:28:48;4.07;;;1.73;;
21987;SDS011;11158;53.404;-1.510;2023-06-14T16:31:32;6.97;;;2.17;;
21987;SDS011;11158;53.404;-1.510;2023-06-14T16:34:16;3.28;;;1.50;;